createdAt,value
2024-02-17T00:00:47.137Z,2.80
2024-02-17T00:03:32.576Z,2.13
2024-02-17T00:06:18.121Z,2.50
2024-02-17T00:09:03.517Z,2.33
2024-02-17T00:11:48.939Z,2.30
2024-02-17T00:14:35.634Z,2.10
2024-02-17T00:17:20.917Z,2.00
2024-02-17T00:20:07.169Z,2.40
2024-02-17T00:22:52.785Z,2.30
2024-02-17T00:25:37.927Z,2.43
2024-02-17T00:28:27.532Z,2.13
2024-02-17T00:31:12.836Z,2.33
2024-02-17T00:33:58.311Z,2.07
2024-02-17T00:36:43.970Z,2.40
2024-02-17T00:39:29.539Z,2.50
2024-02-17T00:42:14.776Z,2.10
2024-02-17T00:45:00.188Z,2.50
2024-02-17T00:47:45.646Z,2.10
2024-02-17T00:50:32.468Z,2.40
2024-02-17T00:53:17.801Z,2.60
2024-02-17T00:56:03.104Z,2.23
2024-02-17T00:58:48.527Z,2.27
2024-02-17T01:01:39.402Z,2.00
2024-02-17T01:04:26.293Z,3.10
2024-02-17T01:07:11.511Z,2.50
2024-02-17T01:09:57.308Z,2.53
2024-02-17T01:12:42.789Z,2.20
2024-02-17T01:15:28.101Z,2.20
2024-02-17T01:18:13.586Z,2.30
2024-02-17T01:20:58.737Z,2.20
2024-02-17T01:23:44.253Z,2.27
2024-02-17T01:26:29.720Z,2.37
2024-02-17T01:29:18.314Z,2.33
2024-02-17T01:32:03.698Z,1.90
2024-02-17T01:34:48.887Z,1.97
2024-02-17T01:37:34.916Z,2.30
2024-02-17T01:40:20.551Z,2.07
2024-02-17T01:43:08.634Z,2.37
2024-02-17T01:45:54.087Z,2.10
2024-02-17T01:48:40.290Z,1.87
2024-02-17T01:51:26.905Z,2.67
2024-02-17T01:54:13.227Z,2.30
2024-02-17T01:57:00.904Z,2.50
2024-02-17T01:59:47.269Z,1.80
2024-02-17T02:02:33.061Z,2.27
2024-02-17T02:05:18.566Z,2.00
2024-02-17T02:08:04.408Z,2.90
2024-02-17T02:10:49.822Z,2.00
2024-02-17T02:13:35.239Z,1.87
2024-02-17T02:16:20.564Z,2.20
2024-02-17T02:19:05.984Z,2.13
2024-02-17T02:21:51.292Z,1.90
2024-02-17T02:24:37.669Z,2.40
2024-02-17T02:27:22.842Z,2.17
2024-02-17T02:30:10.525Z,2.00
2024-02-17T02:33:00.037Z,2.00
2024-02-17T02:35:46.360Z,2.00
2024-02-17T02:38:31.464Z,2.00
2024-02-17T02:41:17.053Z,2.00
2024-02-17T02:44:02.512Z,1.80
2024-02-17T02:46:47.906Z,2.30
2024-02-17T02:49:36.110Z,1.80
2024-02-17T02:52:21.511Z,1.87
2024-02-17T02:55:07.236Z,2.20
2024-02-17T02:57:52.474Z,1.83
2024-02-17T03:00:38.104Z,1.83
2024-02-17T03:03:23.648Z,1.77
2024-02-17T03:06:09.243Z,2.07
2024-02-17T03:08:54.455Z,2.17
2024-02-17T03:11:40.001Z,2.13
2024-02-17T03:14:25.399Z,1.80
2024-02-17T03:17:11.015Z,2.03
2024-02-17T03:19:55.986Z,1.63
2024-02-17T03:22:42.277Z,1.87
2024-02-17T03:25:27.678Z,2.17
2024-02-17T03:28:13.184Z,1.50
2024-02-17T03:30:58.991Z,2.00
2024-02-17T03:33:44.600Z,1.90
2024-02-17T03:36:29.992Z,1.80
2024-02-17T03:39:16.798Z,2.13
2024-02-17T03:42:02.521Z,1.90
2024-02-17T03:44:47.594Z,1.50
2024-02-17T03:47:32.685Z,1.90
2024-02-17T03:50:18.176Z,1.87
2024-02-17T03:53:03.820Z,1.60
2024-02-17T03:55:49.076Z,1.83
2024-02-17T03:58:34.347Z,1.67
2024-02-17T04:01:19.856Z,1.37
2024-02-17T04:04:05.775Z,1.80
2024-02-17T04:06:51.704Z,1.30
2024-02-17T04:09:37.327Z,1.60
2024-02-17T04:12:22.755Z,1.97
2024-02-17T04:15:08.444Z,2.10
2024-02-17T04:17:55.587Z,1.87
2024-02-17T04:20:41.135Z,1.97
2024-02-17T04:23:26.356Z,1.80
2024-02-17T04:26:13.094Z,1.60
2024-02-17T04:28:58.825Z,1.80
2024-02-17T04:31:44.039Z,1.90
2024-02-17T04:34:29.447Z,1.60
2024-02-17T04:37:14.902Z,1.73
2024-02-17T04:40:01.141Z,1.70
2024-02-17T04:42:46.477Z,1.40
2024-02-17T04:45:32.034Z,1.50
2024-02-17T04:48:17.914Z,1.43
2024-02-17T04:51:03.649Z,1.30
2024-02-17T04:53:49.356Z,1.70
2024-02-17T04:56:34.486Z,1.67
2024-02-17T04:59:19.569Z,1.47
2024-02-17T05:02:04.940Z,1.57
2024-02-17T05:04:50.553Z,1.40
2024-02-17T05:07:35.766Z,2.30
2024-02-17T05:10:21.303Z,1.63
2024-02-17T05:13:06.825Z,1.70
2024-02-17T05:15:51.913Z,1.43
2024-02-17T05:18:37.446Z,2.50
2024-02-17T05:21:22.755Z,2.50
2024-02-17T05:24:07.909Z,1.30
2024-02-17T05:26:53.554Z,1.70
2024-02-17T05:29:40.005Z,1.57
2024-02-17T05:32:25.445Z,1.80
2024-02-17T05:35:10.922Z,1.47
2024-02-17T05:37:56.033Z,1.57
2024-02-17T05:40:41.596Z,1.30
2024-02-17T05:43:28.777Z,1.50
2024-02-17T05:46:13.783Z,1.50
2024-02-17T05:48:59.222Z,1.70
2024-02-17T05:51:44.463Z,1.60
2024-02-17T05:54:30.101Z,1.23
2024-02-17T05:57:15.375Z,1.23
2024-02-17T06:00:01.948Z,1.27
2024-02-17T06:02:47.175Z,1.50
2024-02-17T06:05:34.120Z,1.43
2024-02-17T06:08:19.300Z,1.30
2024-02-17T06:11:04.795Z,1.20
2024-02-17T06:13:49.896Z,1.80
2024-02-17T06:16:35.238Z,1.23
2024-02-17T06:19:39.468Z,1.50
2024-02-17T06:22:24.697Z,1.10
2024-02-17T06:25:10.030Z,1.20
2024-02-17T06:27:55.330Z,1.00
2024-02-17T06:30:41.146Z,1.60
2024-02-17T06:33:28.754Z,1.10
2024-02-17T06:36:14.516Z,1.13
2024-02-17T06:38:59.793Z,1.33
2024-02-17T06:41:44.876Z,1.20
2024-02-17T06:44:30.227Z,1.10
2024-02-17T06:47:15.823Z,1.27
2024-02-17T06:50:01.078Z,1.30
2024-02-17T06:52:46.556Z,1.27
2024-02-17T06:55:32.550Z,1.17
2024-02-17T06:58:18.077Z,1.43
2024-02-17T07:01:04.274Z,1.13
2024-02-17T07:03:50.110Z,1.30
2024-02-17T07:06:35.295Z,1.23
2024-02-17T07:09:22.364Z,1.20
2024-02-17T07:12:07.905Z,1.23
2024-02-17T07:14:53.225Z,1.20
2024-02-17T07:17:38.724Z,1.20
2024-02-17T07:20:24.038Z,1.20
2024-02-17T07:23:09.340Z,1.13
2024-02-17T07:25:54.989Z,1.50
2024-02-17T07:28:40.059Z,1.07
2024-02-17T07:31:27.089Z,1.20
2024-02-17T07:34:12.645Z,1.10
2024-02-17T07:37:03.584Z,1.33
2024-02-17T07:39:48.626Z,1.23
2024-02-17T07:42:33.923Z,1.43
2024-02-17T07:45:19.706Z,1.40
2024-02-17T07:48:05.379Z,1.00
2024-02-17T07:50:50.655Z,1.20
2024-02-17T07:53:36.136Z,1.10
2024-02-17T07:56:21.636Z,1.10
2024-02-17T07:59:06.881Z,1.50
2024-02-17T08:01:52.097Z,1.90
2024-02-17T08:04:37.850Z,1.70
2024-02-17T08:07:23.879Z,1.40
2024-02-17T08:10:12.108Z,1.87
2024-02-17T08:12:57.489Z,1.70
2024-02-17T08:15:42.871Z,1.60
2024-02-17T08:18:28.365Z,1.80
2024-02-17T08:21:14.379Z,1.50
2024-02-17T08:23:59.597Z,1.50
2024-02-17T08:26:44.940Z,1.70
2024-02-17T08:29:30.872Z,1.57
2024-02-17T08:32:16.441Z,1.60
2024-02-17T08:35:02.297Z,1.63
2024-02-17T08:37:47.706Z,1.77
2024-02-17T08:40:33.020Z,1.80
2024-02-17T08:43:18.793Z,1.60
2024-02-17T08:46:04.344Z,1.20
2024-02-17T08:48:49.511Z,1.30
2024-02-17T08:51:35.046Z,1.40
2024-02-17T08:54:21.451Z,1.40
2024-02-17T08:57:07.002Z,1.43
2024-02-17T08:59:52.369Z,1.30
2024-02-17T09:02:38.329Z,1.77
2024-02-17T09:05:24.021Z,1.53
2024-02-17T09:08:10.207Z,1.27
2024-02-17T09:10:55.483Z,1.57
2024-02-17T09:13:41.080Z,1.70
2024-02-17T09:16:27.969Z,1.60
2024-02-17T09:19:13.200Z,1.20
2024-02-17T09:21:58.344Z,1.63
2024-02-17T09:24:43.724Z,1.80
2024-02-17T09:27:29.100Z,1.33
2024-02-17T09:30:14.864Z,1.30
2024-02-17T09:33:00.435Z,1.63
2024-02-17T09:35:45.904Z,1.50
2024-02-17T09:38:32.217Z,1.53
2024-02-17T09:41:17.837Z,1.70
2024-02-17T09:44:03.540Z,1.20
2024-02-17T09:46:48.898Z,1.43
2024-02-17T09:49:37.567Z,1.03
2024-02-17T09:52:23.325Z,1.10
2024-02-17T09:55:09.101Z,1.10
2024-02-17T09:57:55.732Z,1.57
2024-02-17T10:00:41.798Z,1.50
2024-02-17T10:03:27.945Z,1.30
2024-02-17T10:06:15.735Z,1.20
2024-02-17T10:09:01.421Z,1.20
2024-02-17T10:11:47.256Z,1.30
2024-02-17T10:14:33.357Z,1.00
2024-02-17T10:17:19.321Z,1.30
2024-02-17T10:20:05.335Z,1.40
2024-02-17T10:22:51.105Z,1.30
2024-02-17T10:25:38.853Z,1.60
2024-02-17T10:28:24.918Z,1.20
2024-02-17T10:31:10.860Z,1.27
2024-02-17T10:33:56.476Z,1.53
2024-02-17T10:36:42.439Z,1.00
2024-02-17T10:39:29.985Z,1.30
2024-02-17T10:42:15.133Z,1.23
2024-02-17T10:45:01.837Z,1.40
2024-02-17T10:47:49.027Z,1.60
2024-02-17T10:50:37.146Z,1.43
2024-02-17T10:53:32.323Z,1.30
2024-02-17T10:56:19.653Z,1.00
2024-02-17T10:59:06.876Z,1.40
2024-02-17T11:01:55.869Z,1.50
2024-02-17T11:04:43.950Z,1.23
2024-02-17T11:07:31.156Z,1.17
2024-02-17T11:10:16.429Z,1.57
2024-02-17T11:13:04.205Z,1.23
2024-02-17T11:16:10.425Z,1.00
2024-02-17T11:18:56.798Z,1.30
2024-02-17T11:21:42.753Z,1.20
2024-02-17T11:24:28.066Z,1.10
2024-02-17T11:27:14.864Z,1.07
2024-02-17T11:30:01.161Z,1.00
2024-02-17T11:32:56.837Z,1.10
2024-02-17T11:35:46.011Z,1.00
2024-02-17T11:38:32.588Z,1.00
2024-02-17T11:41:20.760Z,1.40
2024-02-17T11:44:07.239Z,1.07
2024-02-17T11:46:52.438Z,1.03
2024-02-17T11:49:37.942Z,0.83
2024-02-17T11:52:23.845Z,0.90
2024-02-17T11:55:10.220Z,1.03
2024-02-17T11:57:56.709Z,1.47
2024-02-17T12:00:48.556Z,1.20
2024-02-17T12:03:34.074Z,1.20
2024-02-17T12:06:19.632Z,1.47
2024-02-17T12:09:05.028Z,1.30
2024-02-17T12:11:50.563Z,1.40
2024-02-17T12:14:36.674Z,1.57
2024-02-17T12:17:24.764Z,1.60
2024-02-17T12:20:19.978Z,1.50
2024-02-17T12:23:09.480Z,2.23
2024-02-17T12:25:56.712Z,1.37
2024-02-17T12:28:42.323Z,1.00
2024-02-17T12:31:28.257Z,1.60
2024-02-17T12:34:25.835Z,1.53
2024-02-17T12:37:11.323Z,1.30
2024-02-17T12:39:56.729Z,1.73
2024-02-17T12:42:43.318Z,3.40
2024-02-17T12:45:33.434Z,2.00
2024-02-17T12:48:19.550Z,1.30
2024-02-17T12:51:05.312Z,3.90
2024-02-17T12:53:51.833Z,4.03
2024-02-17T12:56:37.327Z,6.40
2024-02-17T12:59:22.622Z,6.87
2024-02-17T13:02:08.058Z,10.67
2024-02-17T13:04:53.630Z,11.43
2024-02-17T13:07:39.531Z,8.23
2024-02-17T13:10:26.018Z,3.90
2024-02-17T13:13:12.203Z,5.03
2024-02-17T13:15:57.747Z,7.63
2024-02-17T13:18:43.892Z,2.03
2024-02-17T13:21:30.468Z,3.57
2024-02-17T13:24:16.609Z,4.90
2024-02-17T13:27:01.665Z,7.03
2024-02-17T13:29:47.095Z,5.27
2024-02-17T13:32:33.509Z,4.37
2024-02-17T13:35:28.617Z,4.53
2024-02-17T13:38:22.592Z,3.67
2024-02-17T13:41:16.003Z,3.73
2024-02-17T13:44:01.264Z,5.43
2024-02-17T13:46:46.885Z,7.17
2024-02-17T13:49:34.028Z,5.73
2024-02-17T13:52:20.591Z,4.77
2024-02-17T13:55:07.072Z,5.23
2024-02-17T13:57:52.487Z,6.90
2024-02-17T14:00:37.946Z,2.13
2024-02-17T14:03:24.999Z,5.13
2024-02-17T14:06:10.889Z,5.70
2024-02-17T14:08:56.373Z,6.33
2024-02-17T14:11:43.885Z,6.57
2024-02-17T14:14:29.332Z,4.00
2024-02-17T14:17:18.146Z,5.50
2024-02-17T14:20:04.074Z,4.37
2024-02-17T14:22:49.701Z,6.63
2024-02-17T14:25:37.203Z,6.23
2024-02-17T14:28:23.069Z,7.57
2024-02-17T14:31:08.987Z,6.07
2024-02-17T14:33:55.186Z,7.73
2024-02-17T14:36:40.534Z,12.40
2024-02-17T14:39:27.847Z,9.70
2024-02-17T14:42:13.198Z,9.77
2024-02-17T14:44:59.370Z,6.87
2024-02-17T14:47:45.676Z,9.53
2024-02-17T14:50:32.092Z,10.87
2024-02-17T14:53:18.040Z,9.57
2024-02-17T14:56:04.114Z,11.90
2024-02-17T14:58:49.215Z,5.70
2024-02-17T15:01:36.273Z,7.83
2024-02-17T15:04:21.767Z,6.60
2024-02-17T15:07:07.305Z,10.47
2024-02-17T15:09:53.862Z,13.47
2024-02-17T15:12:39.047Z,11.90
2024-02-17T15:15:29.132Z,10.23
2024-02-17T15:18:14.654Z,10.80
2024-02-17T15:20:59.975Z,6.97
2024-02-17T15:23:47.250Z,6.87
2024-02-17T15:26:33.565Z,12.90
2024-02-17T15:29:19.272Z,11.43
2024-02-17T15:32:05.004Z,9.70
2024-02-17T15:34:50.308Z,9.87
2024-02-17T15:37:35.688Z,10.13
2024-02-17T15:40:20.886Z,3.57
2024-02-17T15:43:06.701Z,7.80
2024-02-17T15:45:52.562Z,3.37
2024-02-17T15:48:38.493Z,7.47
2024-02-17T15:51:24.217Z,3.80
2024-02-17T15:54:09.325Z,6.33
2024-02-17T15:56:54.656Z,7.30
2024-02-17T15:59:39.976Z,6.03
2024-02-17T16:02:25.206Z,6.83
2024-02-17T16:05:11.194Z,5.37
2024-02-17T16:07:56.916Z,8.37
2024-02-17T16:10:42.750Z,4.17
2024-02-17T16:13:29.104Z,2.53
2024-02-17T16:16:16.495Z,3.67
2024-02-17T16:19:01.869Z,3.07
2024-02-17T16:21:47.752Z,4.43
2024-02-17T16:24:33.245Z,3.23
2024-02-17T16:30:04.273Z,2.50
2024-02-17T16:32:49.404Z,3.70
2024-02-17T16:35:34.820Z,3.60
2024-02-17T16:38:20.094Z,2.57
2024-02-17T16:41:05.660Z,4.93
2024-02-17T16:43:50.901Z,3.37
2024-02-17T16:46:36.215Z,2.03
2024-02-17T16:49:21.711Z,3.53
2024-02-17T16:52:07.533Z,2.83
2024-02-17T16:54:53.445Z,5.43
2024-02-17T16:57:38.729Z,3.07
2024-02-17T17:00:24.571Z,2.33
2024-02-17T17:03:10.251Z,2.33
2024-02-17T17:05:57.630Z,3.40
2024-02-17T17:08:42.824Z,2.13
2024-02-17T17:11:28.038Z,1.70
2024-02-17T17:14:13.578Z,6.13
2024-02-17T17:17:00.285Z,2.00
2024-02-17T17:19:45.517Z,2.53
2024-02-17T17:22:40.235Z,1.97
2024-02-17T17:25:32.499Z,1.77
2024-02-17T17:28:17.819Z,3.33
2024-02-17T17:31:04.124Z,2.37
2024-02-17T17:33:49.717Z,3.07
2024-02-17T17:36:35.234Z,1.70
2024-02-17T17:39:20.672Z,2.50
2024-02-17T17:42:06.166Z,2.10
2024-02-17T17:44:51.523Z,3.53
2024-02-17T17:47:36.645Z,2.27
2024-02-17T17:50:25.325Z,4.97
2024-02-17T17:53:15.825Z,1.97
2024-02-17T17:56:01.180Z,1.73
2024-02-17T17:58:46.579Z,2.37
2024-02-17T18:01:32.048Z,2.57
2024-02-17T18:04:17.880Z,2.03
2024-02-17T18:07:04.095Z,2.20
2024-02-17T18:09:50.207Z,1.90
2024-02-17T18:12:35.938Z,1.70
2024-02-17T18:15:21.585Z,1.63
2024-02-17T18:18:06.961Z,1.60
2024-02-17T18:20:52.204Z,1.70
2024-02-17T18:23:37.620Z,1.87
2024-02-17T18:26:22.841Z,2.10
2024-02-17T18:29:08.500Z,1.97
2024-02-17T18:31:55.329Z,2.07
2024-02-17T18:34:40.758Z,2.67
2024-02-17T18:37:26.066Z,2.40
2024-02-17T18:40:11.364Z,1.97
2024-02-17T18:42:57.124Z,1.70
2024-02-17T18:45:45.246Z,1.70
2024-02-17T18:48:30.598Z,1.90
2024-02-17T18:51:17.231Z,2.20
2024-02-17T18:54:05.116Z,1.83
2024-02-17T18:56:50.661Z,1.73
2024-02-17T18:59:35.927Z,1.77
2024-02-17T19:02:21.184Z,2.30
2024-02-17T19:05:06.930Z,1.93
2024-02-17T19:07:52.489Z,1.80
2024-02-17T19:10:38.105Z,1.70
2024-02-17T19:13:23.705Z,2.33
2024-02-17T19:16:10.450Z,1.80
2024-02-17T19:18:56.262Z,2.00
2024-02-17T19:21:41.766Z,1.73
2024-02-17T19:24:28.966Z,2.13
2024-02-17T19:27:14.284Z,1.53
2024-02-17T19:29:59.661Z,2.00
2024-02-17T19:32:45.162Z,1.80
2024-02-17T19:35:30.580Z,1.97
2024-02-17T19:38:15.949Z,1.83
2024-02-17T19:41:01.544Z,1.83
2024-02-17T19:43:49.730Z,1.60
2024-02-17T19:46:35.816Z,2.00
2024-02-17T19:49:21.383Z,2.30
2024-02-17T19:52:06.950Z,2.57
2024-02-17T19:54:52.928Z,1.80
2024-02-17T19:57:42.308Z,1.97
2024-02-17T20:00:27.642Z,2.23
2024-02-17T20:03:13.032Z,2.07
2024-02-17T20:05:58.504Z,1.73
2024-02-17T20:08:44.331Z,2.20
2024-02-17T20:11:30.437Z,1.80
2024-02-17T20:14:15.647Z,2.10
2024-02-17T20:17:02.449Z,2.13
2024-02-17T20:19:48.992Z,1.90
2024-02-17T20:22:34.558Z,1.90
2024-02-17T20:25:20.088Z,2.00
2024-02-17T20:28:05.861Z,2.10
2024-02-17T20:30:51.239Z,2.07
2024-02-17T20:33:37.098Z,2.03
2024-02-17T20:36:22.097Z,2.00
2024-02-17T20:39:07.430Z,1.90
2024-02-17T20:41:52.845Z,2.40
2024-02-17T20:44:38.888Z,1.90
2024-02-17T20:47:24.280Z,2.50
2024-02-17T20:50:10.257Z,2.30
2024-02-17T20:52:56.058Z,2.73
2024-02-17T20:55:41.192Z,2.10
2024-02-17T20:58:26.665Z,2.63
2024-02-17T21:01:12.520Z,2.10
2024-02-17T21:03:57.878Z,2.07
2024-02-17T21:06:43.398Z,2.40
2024-02-17T21:09:29.502Z,2.07
2024-02-17T21:12:15.096Z,2.40
2024-02-17T21:15:01.198Z,2.03
2024-02-17T21:17:46.441Z,2.07
2024-02-17T21:20:31.654Z,2.40
2024-02-17T21:23:16.873Z,2.27
2024-02-17T21:26:02.284Z,1.80
2024-02-17T21:28:47.824Z,2.10
2024-02-17T21:31:33.106Z,2.03
2024-02-17T21:34:18.722Z,2.40
2024-02-17T21:37:03.917Z,2.33
2024-02-17T21:39:51.283Z,2.43
2024-02-17T21:42:36.589Z,2.40
2024-02-17T21:45:24.962Z,2.43
2024-02-17T21:48:10.626Z,2.43
2024-02-17T21:50:56.129Z,2.53
2024-02-17T21:53:41.436Z,2.33
2024-02-17T21:56:28.183Z,2.73
2024-02-17T21:59:13.187Z,2.27
2024-02-17T22:02:05.053Z,2.40
2024-02-17T22:04:53.585Z,2.00
2024-02-17T22:07:40.109Z,2.20
2024-02-17T22:10:25.188Z,2.20
2024-02-17T22:13:10.600Z,2.30
2024-02-17T22:15:56.225Z,2.17
2024-02-17T22:18:41.664Z,2.00
2024-02-17T22:21:27.071Z,2.30
2024-02-17T22:24:12.397Z,2.10
2024-02-17T22:26:57.898Z,2.10
2024-02-17T22:29:43.359Z,2.90
2024-02-17T22:32:28.376Z,2.70
2024-02-17T22:35:13.537Z,2.57
2024-02-17T22:38:03.638Z,2.43
2024-02-17T22:40:48.674Z,2.37
2024-02-17T22:43:34.849Z,2.60
2024-02-17T22:46:20.101Z,2.20
2024-02-17T22:49:05.781Z,2.50
2024-02-17T22:51:51.319Z,2.50
2024-02-17T22:54:36.623Z,2.63
2024-02-17T22:57:22.060Z,2.50
2024-02-17T23:00:20.667Z,2.30
2024-02-17T23:03:06.361Z,2.87
2024-02-17T23:05:51.972Z,2.63
2024-02-17T23:08:37.049Z,2.80
2024-02-17T23:11:21.992Z,2.10
2024-02-17T23:14:07.486Z,2.93
2024-02-17T23:16:53.561Z,2.77
2024-02-17T23:19:38.747Z,2.60
2024-02-17T23:22:23.949Z,2.37
2024-02-17T23:25:11.136Z,2.50
2024-02-17T23:27:56.375Z,2.67
2024-02-17T23:30:41.768Z,3.20
2024-02-17T23:33:26.974Z,2.50
2024-02-17T23:36:13.794Z,2.87
2024-02-17T23:38:59.154Z,2.93
2024-02-17T23:41:44.326Z,2.67
2024-02-17T23:44:29.376Z,2.83
2024-02-17T23:47:14.728Z,2.67
2024-02-17T23:50:00.383Z,2.93
2024-02-17T23:52:45.519Z,3.10
2024-02-17T23:55:30.807Z,2.67
2024-02-17T23:58:16.296Z,3.00
